createdAt,value
2018-03-24T00:00:11.571Z,97976.57
2018-03-24T00:01:55.486Z,97976.52
2018-03-24T00:03:32.865Z,98014.45
2018-03-24T00:05:10.954Z,98045.37
2018-03-24T00:06:48.821Z,98040.20
2018-03-24T00:08:26.950Z,98003.98
2018-03-24T00:10:06.315Z,98016.66
2018-03-24T00:11:44.513Z,98019.73
2018-03-24T00:13:21.861Z,98024.92
2018-03-24T00:15:01.191Z,98004.82
2018-03-24T00:16:42.635Z,97994.82
2018-03-24T00:18:22.328Z,98035.34
2018-03-24T00:20:05.526Z,98064.47
2018-03-24T00:21:46.146Z,98048.41
2018-03-24T00:23:24.765Z,98044.48
2018-03-24T00:25:05.339Z,97996.14
2018-03-24T00:26:44.696Z,97963.88
2018-03-24T00:28:22.562Z,97956.11
2018-03-24T00:29:59.930Z,97945.14
2018-03-24T00:31:38.037Z,97936.01
2018-03-24T00:33:16.196Z,97914.66
2018-03-24T00:34:53.637Z,97903.35
2018-03-24T00:36:32.327Z,97870.22
2018-03-24T00:38:09.700Z,97888.50
2018-03-24T00:39:47.883Z,97871.08
2018-03-24T00:41:25.597Z,97895.03
2018-03-24T00:43:04.089Z,97924.61
2018-03-24T00:44:41.542Z,97965.17
2018-03-24T00:46:19.057Z,97961.66
2018-03-24T00:47:56.974Z,97911.57
2018-03-24T00:49:34.945Z,97926.88
2018-03-24T00:51:12.668Z,97921.63
2018-03-24T00:52:50.293Z,97939.00
2018-03-24T00:54:27.717Z,97900.28
2018-03-24T00:56:05.479Z,97881.52
2018-03-24T00:57:43.067Z,97859.73
2018-03-24T00:59:22.333Z,97847.94
2018-03-24T01:01:04.827Z,97855.32
2018-03-24T01:02:44.494Z,97844.92
2018-03-24T01:04:22.253Z,97835.77
2018-03-24T01:05:59.852Z,97861.46
2018-03-24T01:07:38.794Z,97861.00
2018-03-24T01:09:17.153Z,97841.42
2018-03-24T01:10:55.626Z,97859.28
2018-03-24T01:12:34.069Z,97882.84
2018-03-24T01:14:12.196Z,97894.11
2018-03-24T01:15:50.210Z,97898.08
2018-03-24T01:17:27.871Z,97919.41
2018-03-24T01:19:06.283Z,97917.20
2018-03-24T01:20:49.453Z,97938.14
2018-03-24T01:22:30.292Z,97938.14
2018-03-24T01:24:09.260Z,97934.61
2018-03-24T01:25:49.089Z,97932.45
2018-03-24T01:27:27.706Z,97948.13
2018-03-24T01:29:08.792Z,97952.93
2018-03-24T01:30:46.590Z,97915.02
2018-03-24T01:32:24.562Z,97854.48
2018-03-24T01:34:02.327Z,97888.91
2018-03-24T01:35:40.821Z,97865.39
2018-03-24T01:37:23.799Z,97852.73
2018-03-24T01:39:01.393Z,97854.57
2018-03-24T01:40:39.191Z,97841.45
2018-03-24T01:42:17.743Z,97830.06
2018-03-24T01:43:55.812Z,97841.42
2018-03-24T01:45:34.897Z,97834.47
2018-03-24T01:47:16.174Z,97818.34
2018-03-24T01:50:40.381Z,97780.06
2018-03-24T01:52:18.016Z,97760.52
2018-03-24T01:53:57.817Z,97783.16
2018-03-24T01:55:37.242Z,97796.59
2018-03-24T01:57:16.107Z,97800.09
2018-03-24T01:58:54.804Z,97786.11
2018-03-24T02:00:41.951Z,97785.34
2018-03-24T02:02:20.997Z,97794.44
2018-03-24T02:03:59.565Z,97741.75
2018-03-24T02:05:37.624Z,97698.20
2018-03-24T02:07:19.210Z,97683.09
2018-03-24T02:09:01.146Z,97663.50
2018-03-24T02:10:40.885Z,97606.50
2018-03-24T02:12:19.251Z,97572.65
2018-03-24T02:13:59.323Z,97576.55
2018-03-24T02:15:38.648Z,97554.39
2018-03-24T02:17:17.591Z,97563.94
2018-03-24T02:18:56.059Z,97572.59
2018-03-24T02:20:36.593Z,97603.44
2018-03-24T02:22:15.600Z,97683.92
2018-03-24T02:23:55.748Z,97659.55
2018-03-24T02:25:34.601Z,97653.00
2018-03-24T02:27:13.143Z,97655.67
2018-03-24T02:28:51.906Z,97621.23
2018-03-24T02:30:31.706Z,97570.47
2018-03-24T02:32:13.247Z,97562.62
2018-03-24T02:33:51.835Z,97539.63
2018-03-24T02:35:42.513Z,97498.80
2018-03-24T02:37:20.011Z,97404.52
2018-03-24T02:38:57.456Z,97411.94
2018-03-24T02:40:36.035Z,97378.84
2018-03-24T02:42:13.981Z,97367.62
2018-03-24T02:43:51.716Z,97381.51
2018-03-24T02:45:29.250Z,97366.31
2018-03-24T02:47:07.365Z,97373.30
2018-03-24T02:48:44.945Z,97326.38
2018-03-24T02:50:22.626Z,97275.59
2018-03-24T02:52:00.484Z,97247.81
2018-03-24T02:53:38.997Z,97229.20
2018-03-24T02:55:16.636Z,97252.14
2018-03-24T02:56:54.675Z,97222.24
2018-03-24T02:58:33.097Z,97240.47
2018-03-24T03:00:11.309Z,97190.56
2018-03-24T03:01:49.891Z,97168.03
2018-03-24T03:03:28.271Z,97181.47
2018-03-24T03:05:06.023Z,97151.95
2018-03-24T03:06:43.981Z,97157.63
2018-03-24T03:08:21.190Z,97149.81
2018-03-24T03:09:58.799Z,97104.25
2018-03-24T03:11:36.703Z,97098.72
2018-03-24T03:13:14.690Z,97101.74
2018-03-24T03:14:52.103Z,97090.91
2018-03-24T03:16:30.036Z,97065.28
2018-03-24T03:18:07.496Z,97073.08
2018-03-24T03:19:45.795Z,97078.25
2018-03-24T03:21:23.757Z,97052.34
2018-03-24T03:23:01.216Z,97028.95
2018-03-24T03:24:38.973Z,97025.06
2018-03-24T03:26:17.148Z,96977.88
2018-03-24T03:27:54.974Z,96961.06
2018-03-24T03:29:32.660Z,96965.80
2018-03-24T03:31:10.371Z,96984.39
2018-03-24T03:32:47.866Z,96986.10
2018-03-24T03:34:24.970Z,96969.66
2018-03-24T03:36:02.291Z,96976.16
2018-03-24T03:37:39.767Z,96971.77
2018-03-24T03:39:17.439Z,96984.39
2018-03-24T03:40:55.017Z,96966.66
2018-03-24T03:42:32.309Z,96963.52
2018-03-24T03:44:09.486Z,96989.56
2018-03-24T03:45:48.114Z,96986.93
2018-03-24T03:47:25.513Z,97028.12
2018-03-24T03:49:03.303Z,97003.44
2018-03-24T03:50:40.769Z,97001.27
2018-03-24T03:52:18.648Z,97012.49
2018-03-24T03:53:56.107Z,97035.89
2018-03-24T03:55:33.491Z,97007.78
2018-03-24T03:57:10.978Z,97052.34
2018-03-24T03:58:48.622Z,97028.95
2018-03-24T04:00:26.117Z,97002.12
2018-03-24T04:02:03.746Z,97012.13
2018-03-24T04:03:41.683Z,97008.64
2018-03-24T04:05:19.354Z,96991.76
2018-03-24T04:06:56.607Z,97015.55
2018-03-24T04:08:34.026Z,97016.38
2018-03-24T04:10:12.047Z,97043.66
2018-03-24T04:11:50.315Z,97042.73
2018-03-24T04:13:27.740Z,97032.43
2018-03-24T04:15:08.039Z,97041.48
2018-03-24T04:16:45.148Z,97047.97
2018-03-24T04:18:23.484Z,97010.81
2018-03-24T04:20:01.562Z,97016.01
2018-03-24T04:21:39.773Z,97059.22
2018-03-24T04:23:16.809Z,97073.54
2018-03-24T04:24:54.176Z,97054.94
2018-03-24T04:26:31.270Z,97046.71
2018-03-24T04:28:09.391Z,97146.39
2018-03-24T04:29:46.540Z,97112.05
2018-03-24T04:31:24.035Z,97086.94
2018-03-24T04:33:01.067Z,97075.25
2018-03-24T04:34:39.656Z,97050.14
2018-03-24T04:36:16.863Z,97011.64
2018-03-24T04:37:54.806Z,96996.01
2018-03-24T04:39:31.786Z,96967.52
2018-03-24T04:41:09.084Z,96921.17
2018-03-24T04:42:46.446Z,96903.88
2018-03-24T04:44:25.211Z,96922.95
2018-03-24T04:46:08.037Z,96887.35
2018-03-24T04:47:45.220Z,96866.21
2018-03-24T04:49:22.421Z,96864.44
2018-03-24T04:50:59.857Z,96839.30
2018-03-24T04:52:38.090Z,96829.41
2018-03-24T04:54:15.831Z,96801.27
2018-03-24T04:55:53.221Z,96794.34
2018-03-24T04:57:30.349Z,96783.13
2018-03-24T04:59:07.141Z,96763.66
2018-03-24T05:00:45.577Z,96751.98
2018-03-24T05:02:23.934Z,96773.61
2018-03-24T05:04:01.171Z,96770.09
2018-03-24T05:05:38.299Z,96769.70
2018-03-24T05:07:15.227Z,96774.48
2018-03-24T05:08:54.366Z,96790.95
2018-03-24T05:10:32.374Z,96776.66
2018-03-24T05:12:09.687Z,96757.18
2018-03-24T05:13:47.590Z,96739.44
2018-03-24T05:15:25.219Z,96767.53
2018-03-24T05:17:04.692Z,96774.48
2018-03-24T05:18:42.240Z,96775.77
2018-03-24T05:20:19.972Z,96770.58
2018-03-24T05:21:58.224Z,96775.74
2018-03-24T05:23:36.055Z,96788.27
2018-03-24T05:25:13.203Z,96802.61
2018-03-24T05:26:50.504Z,96820.73
2018-03-24T05:28:28.353Z,96830.25
2018-03-24T05:30:07.861Z,96801.33
2018-03-24T05:31:45.242Z,96791.41
2018-03-24T05:33:22.433Z,96810.83
2018-03-24T05:35:00.870Z,96760.66
2018-03-24T05:36:39.116Z,96755.02
2018-03-24T05:38:16.553Z,96776.14
2018-03-24T05:39:54.657Z,96765.45
2018-03-24T05:41:32.209Z,96772.33
2018-03-24T05:43:11.008Z,96799.98
2018-03-24T05:44:48.988Z,96796.56
2018-03-24T05:46:26.754Z,96818.16
2018-03-24T05:48:06.552Z,96831.59
2018-03-24T05:49:44.009Z,96841.52
2018-03-24T05:51:23.179Z,96845.86
2018-03-24T05:53:05.761Z,96880.51
2018-03-24T05:54:44.154Z,96951.47
2018-03-24T05:56:21.710Z,96957.58
2018-03-24T05:58:03.977Z,97049.71
2018-03-24T05:59:42.574Z,97128.15
2018-03-24T06:01:20.703Z,97190.56
2018-03-24T06:02:58.439Z,97270.47
2018-03-24T06:04:36.756Z,97326.02
2018-03-24T06:06:15.862Z,97351.16
2018-03-24T06:07:53.567Z,97361.13
2018-03-24T06:09:31.709Z,97316.48
2018-03-24T06:11:09.753Z,97216.58
2018-03-24T06:12:47.343Z,97165.97
2018-03-24T06:14:27.565Z,97113.43
2018-03-24T06:16:05.499Z,97048.91
2018-03-24T06:17:43.581Z,97011.66
2018-03-24T06:19:22.045Z,97016.04
2018-03-24T06:21:00.978Z,96976.14
2018-03-24T06:22:38.979Z,96983.47
2018-03-24T06:24:16.844Z,97023.38
2018-03-24T06:25:54.809Z,97043.28
2018-03-24T06:27:33.378Z,97072.28
2018-03-24T06:29:11.865Z,97080.54
2018-03-24T06:30:49.760Z,97108.75
2018-03-24T06:32:27.690Z,97119.52
2018-03-24T06:34:06.254Z,97146.81
2018-03-24T06:35:44.493Z,97193.59
2018-03-24T06:37:22.375Z,97203.20
2018-03-24T06:39:00.959Z,97238.38
2018-03-24T06:40:39.414Z,97251.77
2018-03-24T06:42:17.197Z,97323.00
2018-03-24T06:43:55.270Z,97426.23
2018-03-24T06:45:34.433Z,97512.30
2018-03-24T06:47:12.758Z,97596.12
2018-03-24T06:48:50.490Z,97789.23
2018-03-24T06:50:29.426Z,97714.56
2018-03-24T06:52:08.937Z,97716.59
2018-03-24T06:53:48.614Z,97717.61
2018-03-24T06:55:26.877Z,97638.75
2018-03-24T06:57:04.671Z,97632.19
2018-03-24T06:58:43.541Z,97723.98
2018-03-24T07:00:21.780Z,97678.67
2018-03-24T07:01:59.564Z,97571.36
2018-03-24T07:03:37.210Z,97554.87
2018-03-24T07:05:15.838Z,97508.41
2018-03-24T07:06:54.165Z,97538.41
2018-03-24T07:08:32.677Z,97592.28
2018-03-24T07:10:11.221Z,97600.05
2018-03-24T07:11:49.165Z,97596.61
2018-03-24T07:13:27.289Z,97638.32
2018-03-24T07:15:07.562Z,97757.09
2018-03-24T07:16:45.521Z,97775.78
2018-03-24T07:18:23.326Z,97748.37
2018-03-24T07:20:01.496Z,97673.11
2018-03-24T07:21:39.238Z,97676.17
2018-03-24T07:23:18.164Z,97649.19
2018-03-24T07:24:55.574Z,97703.51
2018-03-24T07:26:33.828Z,97858.96
2018-03-24T07:28:11.128Z,97924.72
2018-03-24T07:29:48.519Z,97992.20
2018-03-24T07:31:26.022Z,97971.82
2018-03-24T07:33:03.912Z,98018.32
2018-03-24T07:34:41.284Z,98202.06
2018-03-24T07:36:19.596Z,98241.72
2018-03-24T07:37:56.899Z,98195.94
2018-03-24T07:39:35.527Z,98301.93
2018-03-24T07:41:13.269Z,98461.00
2018-03-24T07:42:50.691Z,98484.17
2018-03-24T07:44:28.259Z,98606.08
2018-03-24T07:46:06.044Z,98786.02
2018-03-24T07:47:44.182Z,98694.11
2018-03-24T07:49:21.338Z,98643.73
2018-03-24T07:50:58.502Z,98541.80
2018-03-24T07:52:36.290Z,98474.13
2018-03-24T07:54:13.354Z,98425.61
2018-03-24T07:55:50.622Z,98425.16
2018-03-24T07:57:29.696Z,98407.72
2018-03-24T07:59:07.256Z,98360.52
2018-03-24T08:00:45.442Z,98342.61
2018-03-24T08:02:22.833Z,98297.20
2018-03-24T08:04:00.325Z,98233.48
2018-03-24T08:05:38.231Z,98197.66
2018-03-24T08:07:15.591Z,98142.36
2018-03-24T08:08:53.479Z,98123.12
2018-03-24T08:10:32.479Z,98129.59
2018-03-24T08:12:10.301Z,98089.95
2018-03-24T08:13:48.167Z,98051.59
2018-03-24T08:15:25.577Z,98152.77
2018-03-24T08:17:02.977Z,98234.38
2018-03-24T08:18:42.375Z,98282.34
2018-03-24T08:20:19.609Z,98311.19
2018-03-24T08:21:56.930Z,98317.32
2018-03-24T08:23:34.481Z,98387.20
2018-03-24T08:25:12.042Z,98440.07
2018-03-24T08:26:49.804Z,98440.94
2018-03-24T08:28:26.948Z,98460.59
2018-03-24T08:30:06.260Z,98539.27
2018-03-24T08:31:43.853Z,98595.27
2018-03-24T08:33:21.768Z,98576.03
2018-03-24T08:34:59.433Z,98560.23
2018-03-24T08:36:37.691Z,98584.81
2018-03-24T08:38:14.910Z,98628.89
2018-03-24T08:39:52.087Z,98656.49
2018-03-24T08:41:30.482Z,98783.47
2018-03-24T08:43:08.443Z,98954.82
2018-03-24T08:44:46.168Z,99243.90
2018-03-24T08:46:23.288Z,99452.57
2018-03-24T08:48:00.758Z,99600.41
2018-03-24T08:49:37.833Z,99672.61
2018-03-24T08:51:15.552Z,99670.39
2018-03-24T08:52:54.093Z,99675.69
2018-03-24T08:54:31.982Z,99732.08
2018-03-24T08:56:09.561Z,99749.67
2018-03-24T08:57:47.543Z,99855.45
2018-03-24T08:59:24.514Z,99892.05
2018-03-24T09:01:01.879Z,99914.53
2018-03-24T09:02:39.101Z,100035.38
2018-03-24T09:04:17.587Z,100034.95
2018-03-24T09:05:55.511Z,100113.95
2018-03-24T09:07:33.108Z,100104.66
2018-03-24T09:09:10.779Z,100050.41
2018-03-24T09:10:48.472Z,100038.47
2018-03-24T09:12:36.844Z,99991.73
2018-03-24T09:14:14.126Z,99911.92
2018-03-24T09:15:51.354Z,99936.57
2018-03-24T09:17:29.103Z,99907.99
2018-03-24T09:19:07.500Z,99924.73
2018-03-24T09:20:45.058Z,99940.13
2018-03-24T09:22:22.507Z,99906.62
2018-03-24T09:23:59.797Z,99773.52
2018-03-24T09:25:37.549Z,99551.28
2018-03-24T09:27:15.088Z,99634.42
2018-03-24T09:28:52.163Z,99852.42
2018-03-24T09:30:31.244Z,99979.84
2018-03-24T09:32:08.752Z,100000.16
2018-03-24T09:33:46.016Z,100082.66
2018-03-24T09:35:23.070Z,99861.72
2018-03-24T09:37:00.865Z,99779.73
2018-03-24T09:38:38.418Z,99792.95
2018-03-24T09:40:16.208Z,99671.88
2018-03-24T09:41:53.981Z,99360.00
2018-03-24T09:43:31.901Z,99204.56
2018-03-24T09:45:09.895Z,99160.67
2018-03-24T09:46:47.137Z,99260.72
2018-03-24T09:48:25.043Z,99526.64
2018-03-24T09:50:02.749Z,99778.42
2018-03-24T09:51:41.941Z,99881.55
2018-03-24T09:53:21.258Z,99895.69
2018-03-24T09:54:59.145Z,99908.48
2018-03-24T09:56:40.728Z,100067.66
2018-03-24T09:58:19.290Z,100212.01
2018-03-24T10:00:23.210Z,100204.10
2018-03-24T10:02:06.266Z,100250.92
2018-03-24T10:03:44.506Z,99890.80
2018-03-24T10:05:22.131Z,99543.41
2018-03-24T10:06:59.736Z,99414.09
2018-03-24T10:08:37.831Z,99385.09
2018-03-24T10:10:15.367Z,99385.95
2018-03-24T10:11:53.992Z,99314.78
2018-03-24T10:13:31.348Z,99258.58
2018-03-24T10:15:10.474Z,99180.84
2018-03-24T10:16:47.875Z,99168.16
2018-03-24T10:18:26.055Z,99174.28
2018-03-24T10:20:03.959Z,99200.16
2018-03-24T10:21:42.727Z,99324.91
2018-03-24T10:23:21.447Z,99494.57
2018-03-24T10:24:58.959Z,99556.12
2018-03-24T10:26:37.221Z,99643.26
2018-03-24T10:28:15.960Z,99701.83
2018-03-24T10:29:57.040Z,99721.63
2018-03-24T10:31:37.482Z,99659.50
2018-03-24T10:33:14.839Z,99507.30
2018-03-24T10:34:57.754Z,99421.98
2018-03-24T10:37:37.187Z,99410.99
2018-03-24T10:39:14.811Z,99306.45
2018-03-24T10:40:52.980Z,99284.86
2018-03-24T10:42:31.447Z,99314.30
2018-03-24T10:44:09.078Z,99382.00
2018-03-24T10:45:46.964Z,99407.45
2018-03-24T10:47:25.349Z,99493.17
2018-03-24T10:49:03.075Z,99554.36
2018-03-24T10:50:43.212Z,99402.60
2018-03-24T10:52:21.740Z,99295.00
2018-03-24T10:54:03.660Z,99268.20
2018-03-24T10:55:45.960Z,99273.91
2018-03-24T10:57:23.457Z,99298.97
2018-03-24T10:59:00.659Z,99357.80
2018-03-24T11:00:42.829Z,99381.51
2018-03-24T11:02:22.469Z,99577.27
2018-03-24T11:04:00.413Z,99818.89
2018-03-24T11:05:38.385Z,99898.70
2018-03-24T11:07:18.297Z,99748.91
2018-03-24T11:08:56.929Z,99659.92
2018-03-24T11:10:40.675Z,99554.34
2018-03-24T11:12:20.206Z,99403.04
2018-03-24T11:13:59.662Z,99302.90
2018-03-24T11:15:38.245Z,99284.87
2018-03-24T11:17:18.215Z,99329.66
2018-03-24T11:18:57.681Z,99450.95
2018-03-24T11:22:11.781Z,99952.05
2018-03-24T11:23:49.630Z,100100.31
2018-03-24T11:25:26.636Z,100001.45
2018-03-24T11:27:20.089Z,99830.81
2018-03-24T11:28:57.518Z,99905.77
2018-03-24T11:30:35.738Z,100005.00
2018-03-24T11:32:14.274Z,100212.01
2018-03-24T11:33:52.191Z,100410.01
2018-03-24T11:35:30.878Z,100531.20
2018-03-24T11:37:08.478Z,100631.27
2018-03-24T11:38:45.970Z,100575.00
2018-03-24T11:40:24.316Z,100529.90
2018-03-24T11:42:03.068Z,100548.02
2018-03-24T11:43:40.602Z,100489.19
2018-03-24T11:47:55.027Z,99993.92
2018-03-24T11:49:33.252Z,99845.80
2018-03-24T11:51:13.604Z,99724.23
2018-03-24T11:52:50.990Z,99770.88
2018-03-24T11:54:41.350Z,99797.74
2018-03-24T11:56:18.736Z,100056.16
2018-03-24T11:57:56.377Z,100127.69
2018-03-24T12:01:15.535Z,99889.47
2018-03-24T12:02:54.132Z,99867.39
2018-03-24T12:04:31.580Z,99879.72
2018-03-24T12:06:08.625Z,99999.23
2018-03-24T12:07:45.982Z,100133.82
2018-03-24T12:09:24.317Z,100292.85
2018-03-24T12:11:02.671Z,100494.00
2018-03-24T12:12:40.013Z,100633.42
2018-03-24T12:14:17.239Z,100674.19
2018-03-24T12:15:55.141Z,100717.12
2018-03-24T12:17:33.552Z,100839.00
2018-03-24T12:19:11.077Z,100960.05
2018-03-24T12:20:49.180Z,100947.61
2018-03-24T12:22:26.687Z,100934.74
2018-03-24T12:24:04.330Z,100946.27
2018-03-24T12:25:41.665Z,100937.88
2018-03-24T12:27:18.916Z,100927.66
2018-03-24T12:28:56.678Z,100805.73
2018-03-24T12:30:34.640Z,100692.76
2018-03-24T12:32:11.873Z,100521.87
2018-03-24T12:33:50.169Z,100223.88
2018-03-24T12:35:27.435Z,100132.94
2018-03-24T12:37:05.069Z,100096.31
2018-03-24T12:38:43.382Z,100030.14
2018-03-24T12:40:21.251Z,99909.71
2018-03-24T12:41:58.878Z,99920.72
2018-03-24T12:43:36.202Z,100033.17
2018-03-24T12:45:15.155Z,100105.09
2018-03-24T12:46:54.449Z,100134.67
2018-03-24T12:48:31.568Z,100047.28
2018-03-24T12:50:08.627Z,99889.40
2018-03-24T12:51:46.930Z,99808.70
2018-03-24T12:53:23.874Z,99726.30
2018-03-24T12:55:00.677Z,99721.05
2018-03-24T12:56:38.878Z,99702.55
2018-03-24T12:58:16.919Z,99742.19
2018-03-24T12:59:54.047Z,99881.39
2018-03-24T13:01:31.114Z,99902.59
2018-03-24T13:03:09.339Z,99742.19
2018-03-24T13:04:46.991Z,99614.07
2018-03-24T13:06:25.047Z,99607.03
2018-03-24T13:08:04.219Z,99647.50
2018-03-24T13:09:44.162Z,99732.96
2018-03-24T13:11:23.171Z,99772.98
2018-03-24T13:13:00.553Z,99788.84
2018-03-24T13:14:37.732Z,99791.02
2018-03-24T13:16:15.646Z,99782.64
2018-03-24T13:17:52.672Z,99796.33
2018-03-24T13:19:29.692Z,99781.33
2018-03-24T13:21:06.854Z,99792.79
2018-03-24T13:22:47.574Z,99785.73
2018-03-24T13:24:25.456Z,99841.70
2018-03-24T13:26:04.016Z,99951.48
2018-03-24T13:27:41.263Z,99995.55
2018-03-24T13:29:18.803Z,100047.16
2018-03-24T13:30:57.609Z,99952.78
2018-03-24T13:32:34.368Z,99867.64
2018-03-24T13:34:12.489Z,99832.40
2018-03-24T13:35:50.021Z,99814.74
2018-03-24T13:37:28.103Z,99813.04
2018-03-24T13:39:05.546Z,99825.78
2018-03-24T13:40:43.058Z,99831.96
2018-03-24T13:42:20.373Z,99856.65
2018-03-24T13:43:57.434Z,99890.17
2018-03-24T13:45:34.728Z,99903.38
2018-03-24T13:47:11.816Z,99869.88
2018-03-24T13:48:49.554Z,99877.78
2018-03-24T13:50:26.908Z,99865.85
2018-03-24T13:52:04.985Z,99863.66
2018-03-24T13:53:42.813Z,99906.88
2018-03-24T13:55:20.292Z,99915.24
2018-03-24T13:57:02.444Z,99946.98
2018-03-24T13:58:39.661Z,99960.67
2018-03-24T14:00:19.455Z,100016.21
2018-03-24T14:01:57.852Z,99991.06
2018-03-24T14:03:36.530Z,99974.72
2018-03-24T14:05:14.093Z,99974.31
2018-03-24T14:06:52.938Z,100033.84
2018-03-24T14:08:30.851Z,100029.45
2018-03-24T14:10:12.177Z,100059.02
2018-03-24T14:11:53.209Z,100028.11
2018-03-24T14:13:32.463Z,100063.87
2018-03-24T14:15:16.665Z,100074.00
2018-03-24T14:16:55.560Z,100112.43
2018-03-24T14:18:33.356Z,100179.11
2018-03-24T14:20:14.649Z,100227.23
2018-03-24T14:21:54.660Z,100255.95
2018-03-24T14:23:32.206Z,100289.94
2018-03-24T14:25:11.105Z,100278.86
2018-03-24T14:26:51.464Z,100188.30
2018-03-24T14:28:28.955Z,100278.47
2018-03-24T14:30:07.283Z,100461.48
2018-03-24T14:31:44.917Z,100500.90
2018-03-24T14:33:25.234Z,100627.48
2018-03-24T14:35:08.669Z,100783.78
2018-03-24T14:36:47.417Z,100607.98
2018-03-24T14:38:24.516Z,100298.71
2018-03-24T14:40:04.191Z,100206.86
2018-03-24T14:41:42.499Z,100330.58
2018-03-24T14:43:20.320Z,100418.12
2018-03-24T14:44:58.300Z,100257.17
2018-03-24T14:46:35.438Z,100191.86
2018-03-24T14:48:16.220Z,100169.77
2018-03-24T14:49:54.102Z,100150.33
2018-03-24T14:51:31.142Z,100100.89
2018-03-24T14:53:08.353Z,100099.09
2018-03-24T14:54:46.090Z,100087.61
2018-03-24T14:56:23.197Z,100080.98
2018-03-24T14:58:01.441Z,100102.20
2018-03-24T14:59:38.856Z,100118.50
2018-03-24T15:01:16.579Z,100247.00
2018-03-24T15:02:54.628Z,100243.00
2018-03-24T15:04:37.899Z,100221.86
2018-03-24T15:06:15.233Z,100179.86
2018-03-24T15:07:54.334Z,100074.77
2018-03-24T15:09:31.472Z,100054.03
2018-03-24T15:11:08.803Z,100070.84
2018-03-24T15:12:46.272Z,100044.34
2018-03-24T15:14:25.280Z,100077.41
2018-03-24T15:16:05.416Z,100108.33
2018-03-24T15:17:43.380Z,100124.19
2018-03-24T15:19:21.254Z,99992.25
2018-03-24T15:20:59.839Z,99925.21
2018-03-24T15:22:37.072Z,99927.42
2018-03-24T15:24:14.115Z,99926.10
2018-03-24T15:25:52.770Z,99987.83
2018-03-24T15:27:30.299Z,99993.55
2018-03-24T15:29:22.182Z,100012.08
2018-03-24T15:31:22.111Z,100036.36
2018-03-24T15:33:13.259Z,100047.37
2018-03-24T15:36:10.020Z,100011.16
2018-03-24T15:37:47.355Z,99960.91
2018-03-24T15:39:24.781Z,99972.38
2018-03-24T15:41:02.021Z,100036.77
2018-03-24T15:42:39.053Z,100044.72
2018-03-24T15:44:17.041Z,100057.52
2018-03-24T15:45:54.627Z,100040.72
2018-03-24T15:47:33.548Z,100059.30
2018-03-24T15:49:11.616Z,100139.56
2018-03-24T15:50:49.321Z,100138.69
2018-03-24T15:52:27.676Z,100134.27
2018-03-24T15:54:06.464Z,100140.43
2018-03-24T15:55:44.380Z,100184.17
2018-03-24T15:57:21.641Z,100150.61
2018-03-24T15:59:04.174Z,100122.82
2018-03-24T16:00:41.373Z,100149.27
2018-03-24T16:02:18.567Z,100109.95
2018-03-24T16:03:55.942Z,100104.28
2018-03-24T16:05:33.370Z,100083.98
2018-03-24T16:07:10.548Z,100101.55
2018-03-24T16:08:48.512Z,100154.11
2018-03-24T16:10:25.913Z,100153.21
2018-03-24T16:12:04.751Z,100134.25
2018-03-24T16:13:42.158Z,100111.28
2018-03-24T16:15:20.013Z,100250.83
2018-03-24T16:16:57.548Z,100276.45
2018-03-24T16:18:35.216Z,100342.73
2018-03-24T16:20:12.347Z,100370.14
2018-03-24T16:21:50.134Z,100425.43
2018-03-24T16:23:27.275Z,100241.57
2018-03-24T16:25:04.913Z,100064.49
2018-03-24T16:26:42.979Z,99962.55
2018-03-24T16:28:20.057Z,99911.37
2018-03-24T16:29:58.431Z,99858.06
2018-03-24T16:31:36.370Z,99892.88
2018-03-24T16:33:14.408Z,99880.97
2018-03-24T16:34:51.928Z,99847.46
2018-03-24T16:36:29.723Z,99806.49
2018-03-24T16:38:07.539Z,99795.00
2018-03-24T16:39:45.303Z,99780.06
2018-03-24T16:41:22.954Z,99766.78
2018-03-24T16:43:01.388Z,99779.14
2018-03-24T16:44:38.921Z,99791.90
2018-03-24T16:46:16.377Z,99794.07
2018-03-24T16:47:54.405Z,99805.14
2018-03-24T16:49:33.593Z,99825.36
2018-03-24T16:51:11.143Z,99847.78
2018-03-24T16:52:48.168Z,99880.45
2018-03-24T16:54:25.297Z,99877.36
2018-03-24T16:56:02.789Z,99847.87
2018-03-24T16:57:40.788Z,99808.58
2018-03-24T16:59:18.988Z,99840.33
2018-03-24T17:00:56.875Z,99781.72
2018-03-24T17:02:35.536Z,99771.62
2018-03-24T17:04:13.437Z,99790.56
2018-03-24T17:05:50.591Z,99816.08
2018-03-24T17:07:28.782Z,99822.28
2018-03-24T17:09:06.748Z,99783.03
2018-03-24T17:10:45.005Z,99753.05
2018-03-24T17:12:22.941Z,99725.33
2018-03-24T17:14:00.208Z,99745.19
2018-03-24T17:15:37.655Z,99738.49
2018-03-24T17:17:15.163Z,99776.85
2018-03-24T17:18:53.147Z,99764.98
2018-03-24T17:20:30.419Z,99750.34
2018-03-24T17:22:09.329Z,99761.00
2018-03-24T17:23:46.898Z,99756.13
2018-03-24T17:25:24.062Z,99734.53
2018-03-24T17:27:01.281Z,99710.30
2018-03-24T17:28:38.326Z,99746.90
2018-03-24T17:30:19.300Z,99764.95
2018-03-24T17:31:57.089Z,99787.40
2018-03-24T17:33:34.868Z,99807.23
2018-03-24T17:35:12.065Z,99794.42
2018-03-24T17:36:52.361Z,99793.14
2018-03-24T17:38:29.714Z,99778.13
2018-03-24T17:40:08.142Z,99759.18
2018-03-24T17:41:46.294Z,99764.92
2018-03-24T17:43:24.157Z,99776.34
2018-03-24T17:45:01.495Z,99779.87
2018-03-24T17:46:39.897Z,99836.69
2018-03-24T17:48:17.481Z,99890.51
2018-03-24T17:49:56.455Z,99963.25
2018-03-24T17:51:33.858Z,100016.66
2018-03-24T17:53:10.873Z,99995.03
2018-03-24T17:54:48.058Z,99992.84
2018-03-24T17:56:25.483Z,100033.83
2018-03-24T17:58:02.413Z,100042.69
2018-03-24T17:59:41.323Z,100115.45
2018-03-24T18:01:19.085Z,100128.31
2018-03-24T18:02:56.823Z,100056.77
2018-03-24T18:04:33.817Z,100069.56
2018-03-24T18:06:10.847Z,100083.72
2018-03-24T18:07:48.024Z,100073.56
2018-03-24T18:09:25.525Z,100119.50
2018-03-24T18:11:03.570Z,100158.31
2018-03-24T18:12:40.544Z,100165.41
2018-03-24T18:14:17.428Z,100069.16
2018-03-24T18:15:55.376Z,100033.41
2018-03-24T18:17:32.496Z,99997.26
2018-03-24T18:19:10.335Z,99983.55
2018-03-24T18:20:47.338Z,99994.58
2018-03-24T18:22:25.619Z,99911.62
2018-03-24T18:24:02.824Z,100025.45
2018-03-24T18:25:40.115Z,99952.63
2018-03-24T18:27:17.280Z,99943.80
2018-03-24T18:28:56.277Z,99907.64
2018-03-24T18:30:33.908Z,99849.88
2018-03-24T18:32:11.508Z,99821.21
2018-03-24T18:33:49.300Z,99805.39
2018-03-24T18:35:27.969Z,99838.00
2018-03-24T18:37:05.031Z,99826.98
2018-03-24T18:38:42.792Z,99796.55
2018-03-24T18:40:19.951Z,99796.10
2018-03-24T18:41:59.217Z,99837.11
2018-03-24T18:43:37.600Z,99871.03
2018-03-24T18:45:26.275Z,99925.22
2018-03-24T18:47:03.330Z,99834.41
2018-03-24T18:48:40.584Z,99842.80
2018-03-24T18:50:18.476Z,99822.55
2018-03-24T18:51:56.842Z,99800.52
2018-03-24T18:53:35.770Z,99778.00
2018-03-24T18:55:13.092Z,99865.70
2018-03-24T18:56:50.428Z,99901.41
2018-03-24T18:58:27.745Z,99766.53
2018-03-24T19:00:07.316Z,99737.00
2018-03-24T19:01:45.779Z,99671.42
2018-03-24T19:03:23.498Z,99575.02
2018-03-24T19:05:01.109Z,99492.34
2018-03-24T19:06:38.585Z,99421.10
2018-03-24T19:08:15.663Z,99394.28
2018-03-24T19:09:53.746Z,99376.26
2018-03-24T19:11:30.801Z,99352.98
2018-03-24T19:13:08.224Z,99331.82
2018-03-24T19:14:47.641Z,99330.11
2018-03-24T19:16:25.848Z,99264.59
2018-03-24T19:18:02.767Z,99182.95